sensor_id;sensor_type;location;lat;lon;timestamp;pressure;altitude;pressure_sealevel;temperature;humidity
59939;BME280;45801;51.810;19.444;2023-03-26T00:00:59;97903.39;;;8.58;70.21
59939;BME280;45801;51.810;19.444;2023-03-26T00:03:35;97903.19;;;8.57;70.37
59939;BME280;45801;51.810;19.444;2023-03-26T00:06:06;97902.05;;;8.60;69.86
59939;BME280;45801;51.810;19.444;2023-03-26T00:08:34;97902.38;;;8.59;70.18
59939;BME280;45801;51.810;19.444;2023-03-26T00:11:01;97898.39;;;8.61;69.65
59939;BME280;45801;51.810;19.444;2023-03-26T00:13:28;97897.72;;;8.61;69.69
59939;BME280;45801;51.810;19.444;2023-03-26T00:15:55;97898.30;;;8.63;69.63
59939;BME280;45801;51.810;19.444;2023-03-26T00:18:22;97896.06;;;8.64;69.48
59939;BME280;45801;51.810;19.444;2023-03-26T00:21:01;97891.99;;;8.62;69.29
59939;BME280;45801;51.810;19.444;2023-03-26T00:23:30;97891.95;;;8.61;69.42
59939;BME280;45801;51.810;19.444;2023-03-26T00:25:57;97889.17;;;8.62;69.28
59939;BME280;45801;51.810;19.444;2023-03-26T00:28:24;97885.36;;;8.62;69.06
59939;BME280;45801;51.810;19.444;2023-03-26T00:31:01;97885.61;;;8.65;69.02
59939;BME280;45801;51.810;19.444;2023-03-26T00:33:28;97881.76;;;8.64;68.91
59939;BME280;45801;51.810;19.444;2023-03-26T00:35:59;97877.95;;;8.66;68.76
59939;BME280;45801;51.810;19.444;2023-03-26T00:38:27;97871.67;;;8.66;68.67
59939;BME280;45801;51.810;19.444;2023-03-26T00:40:54;97869.70;;;8.64;68.74
59939;BME280;45801;51.810;19.444;2023-03-26T00:43:22;97870.34;;;8.68;68.69
59939;BME280;45801;51.810;19.444;2023-03-26T00:45:51;97872.60;;;8.68;68.51
59939;BME280;45801;51.810;19.444;2023-03-26T00:48:19;97873.91;;;8.64;68.29
59939;BME280;45801;51.810;19.444;2023-03-26T00:50:48;97871.92;;;8.62;68.16
59939;BME280;45801;51.810;19.444;2023-03-26T00:53:15;97865.98;;;8.62;68.38
59939;BME280;45801;51.810;19.444;2023-03-26T00:55:44;97866.02;;;8.63;68.27
59939;BME280;45801;51.810;19.444;2023-03-26T00:58:12;97866.23;;;8.65;68.74
59939;BME280;45801;51.810;19.444;2023-03-26T01:00:47;97864.52;;;8.66;68.79
59939;BME280;45801;51.810;19.444;2023-03-26T01:03:17;97858.85;;;8.70;69.10
59939;BME280;45801;51.810;19.444;2023-03-26T01:05:54;97854.95;;;8.73;69.53
59939;BME280;45801;51.810;19.444;2023-03-26T01:08:27;97850.96;;;8.74;69.44
59939;BME280;45801;51.810;19.444;2023-03-26T01:10:58;97849.85;;;8.72;69.69
59939;BME280;45801;51.810;19.444;2023-03-26T01:13:33;97845.60;;;8.64;69.33
59939;BME280;45801;51.810;19.444;2023-03-26T01:16:00;97846.27;;;8.63;69.69
59939;BME280;45801;51.810;19.444;2023-03-26T01:18:30;97843.90;;;8.65;69.69
59939;BME280;45801;51.810;19.444;2023-03-26T01:21:01;97840.94;;;8.65;69.78
59939;BME280;45801;51.810;19.444;2023-03-26T01:23:39;97839.06;;;8.67;69.51
59939;BME280;45801;51.810;19.444;2023-03-26T01:26:28;97839.41;;;8.66;68.83
59939;BME280;45801;51.810;19.444;2023-03-26T01:28:58;97841.70;;;8.61;68.87
59939;BME280;45801;51.810;19.444;2023-03-26T01:31:55;97837.53;;;8.56;68.93
59939;BME280;45801;51.810;19.444;2023-03-26T01:37:45;97839.08;;;8.49;69.36
59939;BME280;45801;51.810;19.444;2023-03-26T01:40:25;97837.30;;;8.48;69.19
59939;BME280;45801;51.810;19.444;2023-03-26T01:43:31;97830.95;;;8.52;68.66
59939;BME280;45801;51.810;19.444;2023-03-26T01:46:05;97829.48;;;8.56;69.07
59939;BME280;45801;51.810;19.444;2023-03-26T01:48:41;97823.34;;;8.54;68.48
59939;BME280;45801;51.810;19.444;2023-03-26T01:51:09;97821.77;;;8.54;68.58
59939;BME280;45801;51.810;19.444;2023-03-26T01:53:42;97824.46;;;8.51;68.41
59939;BME280;45801;51.810;19.444;2023-03-26T01:56:25;97822.70;;;8.51;68.21
59939;BME280;45801;51.810;19.444;2023-03-26T02:01:57;97816.42;;;8.75;67.95
59939;BME280;45801;51.810;19.444;2023-03-26T02:04:42;97815.07;;;8.83;67.22
59939;BME280;45801;51.810;19.444;2023-03-26T02:07:38;97818.27;;;8.86;67.26
59939;BME280;45801;51.810;19.444;2023-03-26T02:10:11;97815.67;;;8.80;66.77
59939;BME280;45801;51.810;19.444;2023-03-26T02:12:42;97812.44;;;8.76;66.90
59939;BME280;45801;51.810;19.444;2023-03-26T02:15:10;97809.52;;;8.78;67.07
59939;BME280;45801;51.810;19.444;2023-03-26T02:17:38;97806.18;;;8.77;66.91
59939;BME280;45801;51.810;19.444;2023-03-26T02:20:08;97803.95;;;8.72;66.91
59939;BME280;45801;51.810;19.444;2023-03-26T02:22:39;97801.86;;;8.67;67.19
59939;BME280;45801;51.810;19.444;2023-03-26T02:25:08;97801.33;;;8.60;66.93
59939;BME280;45801;51.810;19.444;2023-03-26T02:27:36;97799.55;;;8.59;67.23
59939;BME280;45801;51.810;19.444;2023-03-26T02:30:06;97795.85;;;8.51;66.96
59939;BME280;45801;51.810;19.444;2023-03-26T02:32:34;97799.27;;;8.48;67.26
59939;BME280;45801;51.810;19.444;2023-03-26T02:35:01;97802.23;;;8.48;67.40
59939;BME280;45801;51.810;19.444;2023-03-26T02:37:27;97795.16;;;8.52;67.11
59939;BME280;45801;51.810;19.444;2023-03-26T02:39:55;97794.67;;;8.53;66.82
59939;BME280;45801;51.810;19.444;2023-03-26T02:42:22;97792.53;;;8.51;66.74
59939;BME280;45801;51.810;19.444;2023-03-26T02:44:48;97789.78;;;8.47;66.66
59939;BME280;45801;51.810;19.444;2023-03-26T02:47:15;97794.05;;;8.43;66.70
59939;BME280;45801;51.810;19.444;2023-03-26T02:49:41;97796.87;;;8.39;66.90
59939;BME280;45801;51.810;19.444;2023-03-26T02:52:08;97799.00;;;8.34;66.94
59939;BME280;45801;51.810;19.444;2023-03-26T02:54:35;97798.38;;;8.30;67.10
59939;BME280;45801;51.810;19.444;2023-03-26T02:57:02;97794.85;;;8.29;67.31
59939;BME280;45801;51.810;19.444;2023-03-26T02:59:28;97795.35;;;8.34;67.34
59939;BME280;45801;51.810;19.444;2023-03-26T03:01:55;97792.54;;;8.34;67.15
59939;BME280;45801;51.810;19.444;2023-03-26T03:04:21;97793.00;;;8.31;66.98
59939;BME280;45801;51.810;19.444;2023-03-26T03:06:48;97791.94;;;8.31;66.88
59939;BME280;45801;51.810;19.444;2023-03-26T03:09:18;97794.48;;;8.29;67.01
59939;BME280;45801;51.810;19.444;2023-03-26T03:11:46;97795.90;;;8.24;67.05
59939;BME280;45801;51.810;19.444;2023-03-26T03:14:13;97800.12;;;8.19;67.33
59939;BME280;45801;51.810;19.444;2023-03-26T03:16:39;97802.69;;;8.17;67.39
59939;BME280;45801;51.810;19.444;2023-03-26T03:19:06;97802.52;;;8.11;67.51
59939;BME280;45801;51.810;19.444;2023-03-26T03:21:33;97800.58;;;8.10;67.72
59939;BME280;45801;51.810;19.444;2023-03-26T03:23:59;97800.71;;;8.09;67.54
59939;BME280;45801;51.810;19.444;2023-03-26T03:26:26;97797.67;;;8.12;67.58
59939;BME280;45801;51.810;19.444;2023-03-26T03:28:56;97800.30;;;8.19;67.76
59939;BME280;45801;51.810;19.444;2023-03-26T03:31:24;97802.70;;;8.12;67.39
59939;BME280;45801;51.810;19.444;2023-03-26T03:33:51;97802.75;;;8.13;67.54
59939;BME280;45801;51.810;19.444;2023-03-26T03:36:20;97797.83;;;8.12;67.50
59939;BME280;45801;51.810;19.444;2023-03-26T03:38:53;97796.60;;;8.06;67.36
59939;BME280;45801;51.810;19.444;2023-03-26T03:41:19;97790.72;;;8.02;67.58
59939;BME280;45801;51.810;19.444;2023-03-26T03:43:46;97789.47;;;8.01;67.58
59939;BME280;45801;51.810;19.444;2023-03-26T03:46:12;97791.48;;;7.97;67.55
59939;BME280;45801;51.810;19.444;2023-03-26T03:48:40;97795.93;;;7.95;67.58
59939;BME280;45801;51.810;19.444;2023-03-26T03:51:06;97796.65;;;7.96;67.43
59939;BME280;45801;51.810;19.444;2023-03-26T03:53:34;97797.45;;;7.99;67.70
59939;BME280;45801;51.810;19.444;2023-03-26T03:56:02;97799.20;;;8.00;67.52
59939;BME280;45801;51.810;19.444;2023-03-26T03:58:29;97797.38;;;7.97;67.39
59939;BME280;45801;51.810;19.444;2023-03-26T04:00:56;97792.70;;;7.92;67.59
59939;BME280;45801;51.810;19.444;2023-03-26T04:03:26;97792.02;;;7.92;67.66
59939;BME280;45801;51.810;19.444;2023-03-26T04:05:56;97795.81;;;7.92;68.21
59939;BME280;45801;51.810;19.444;2023-03-26T04:08:23;97798.66;;;7.93;68.39
59939;BME280;45801;51.810;19.444;2023-03-26T04:10:50;97798.68;;;7.94;69.22
59939;BME280;45801;51.810;19.444;2023-03-26T04:13:16;97795.77;;;7.84;70.15
59939;BME280;45801;51.810;19.444;2023-03-26T04:15:43;97794.52;;;7.78;70.72
59939;BME280;45801;51.810;19.444;2023-03-26T04:18:10;97793.70;;;7.78;70.31
59939;BME280;45801;51.810;19.444;2023-03-26T04:20:38;97792.27;;;7.78;70.07
59939;BME280;45801;51.810;19.444;2023-03-26T04:23:07;97792.82;;;7.78;70.83
59939;BME280;45801;51.810;19.444;2023-03-26T04:25:34;97790.32;;;7.77;70.90
59939;BME280;45801;51.810;19.444;2023-03-26T04:28:04;97794.79;;;7.64;71.16
59939;BME280;45801;51.810;19.444;2023-03-26T04:30:33;97796.30;;;7.62;71.38
59939;BME280;45801;51.810;19.444;2023-03-26T04:33:01;97797.57;;;7.63;71.23
59939;BME280;45801;51.810;19.444;2023-03-26T04:35:32;97796.96;;;7.55;71.92
59939;BME280;45801;51.810;19.444;2023-03-26T04:38:02;97792.63;;;7.56;71.99
59939;BME280;45801;51.810;19.444;2023-03-26T04:40:32;97786.06;;;7.52;72.51
59939;BME280;45801;51.810;19.444;2023-03-26T04:43:00;97782.01;;;7.40;74.13
59939;BME280;45801;51.810;19.444;2023-03-26T04:45:29;97779.42;;;7.46;72.86
59939;BME280;45801;51.810;19.444;2023-03-26T04:47:56;97776.11;;;7.47;73.28
59939;BME280;45801;51.810;19.444;2023-03-26T04:50:24;97775.42;;;7.47;73.39
59939;BME280;45801;51.810;19.444;2023-03-26T04:52:52;97775.04;;;7.45;73.33
59939;BME280;45801;51.810;19.444;2023-03-26T04:55:24;97775.44;;;7.47;73.47
59939;BME280;45801;51.810;19.444;2023-03-26T04:57:55;97778.23;;;7.47;73.53
59939;BME280;45801;51.810;19.444;2023-03-26T05:00:22;97777.77;;;7.49;73.61
59939;BME280;45801;51.810;19.444;2023-03-26T05:02:51;97777.11;;;7.44;73.62
59939;BME280;45801;51.810;19.444;2023-03-26T05:05:21;97775.89;;;7.39;74.01
59939;BME280;45801;51.810;19.444;2023-03-26T05:07:47;97779.42;;;7.35;74.02
59939;BME280;45801;51.810;19.444;2023-03-26T05:10:16;97779.70;;;7.33;74.11
59939;BME280;45801;51.810;19.444;2023-03-26T05:12:42;97775.27;;;7.31;74.39
59939;BME280;45801;51.810;19.444;2023-03-26T05:15:10;97776.52;;;7.32;74.57
59939;BME280;45801;51.810;19.444;2023-03-26T05:17:37;97771.52;;;7.38;73.50
59939;BME280;45801;51.810;19.444;2023-03-26T05:20:20;97771.81;;;7.42;74.25
59939;BME280;45801;51.810;19.444;2023-03-26T05:22:48;97773.06;;;7.49;73.52
59939;BME280;45801;51.810;19.444;2023-03-26T05:25:17;97774.14;;;7.55;73.68
59939;BME280;45801;51.810;19.444;2023-03-26T05:27:44;97776.59;;;7.56;73.79
59939;BME280;45801;51.810;19.444;2023-03-26T05:30:16;97780.05;;;7.55;73.54
59939;BME280;45801;51.810;19.444;2023-03-26T05:32:43;97778.61;;;7.48;73.71
59939;BME280;45801;51.810;19.444;2023-03-26T05:35:10;97778.45;;;7.48;73.45
59939;BME280;45801;51.810;19.444;2023-03-26T05:37:38;97779.58;;;7.51;73.83
59939;BME280;45801;51.810;19.444;2023-03-26T05:40:06;97782.00;;;7.56;73.56
59939;BME280;45801;51.810;19.444;2023-03-26T05:42:37;97779.34;;;7.54;73.35
59939;BME280;45801;51.810;19.444;2023-03-26T05:45:06;97776.20;;;7.54;73.89
59939;BME280;45801;51.810;19.444;2023-03-26T05:47:33;97774.38;;;7.57;73.97
59939;BME280;45801;51.810;19.444;2023-03-26T05:50:00;97771.89;;;7.56;74.09
59939;BME280;45801;51.810;19.444;2023-03-26T05:52:27;97772.20;;;7.54;73.60
59939;BME280;45801;51.810;19.444;2023-03-26T05:54:53;97776.33;;;7.58;73.31
59939;BME280;45801;51.810;19.444;2023-03-26T05:57:20;97778.80;;;7.59;73.36
59939;BME280;45801;51.810;19.444;2023-03-26T05:59:49;97782.93;;;7.64;73.28
59939;BME280;45801;51.810;19.444;2023-03-26T06:02:15;97788.79;;;7.61;73.25
59939;BME280;45801;51.810;19.444;2023-03-26T06:04:42;97785.79;;;7.60;73.36
59939;BME280;45801;51.810;19.444;2023-03-26T06:07:10;97788.02;;;7.59;72.81
59939;BME280;45801;51.810;19.444;2023-03-26T06:09:38;97785.41;;;7.65;72.89
59939;BME280;45801;51.810;19.444;2023-03-26T06:12:07;97785.35;;;7.68;73.03
59939;BME280;45801;51.810;19.444;2023-03-26T06:14:34;97787.57;;;7.72;72.94
59939;BME280;45801;51.810;19.444;2023-03-26T06:17:01;97784.85;;;7.75;72.90
59939;BME280;45801;51.810;19.444;2023-03-26T06:19:28;97784.37;;;7.76;72.95
59939;BME280;45801;51.810;19.444;2023-03-26T06:21:54;97780.45;;;7.79;72.23
59939;BME280;45801;51.810;19.444;2023-03-26T06:24:21;97778.21;;;7.80;72.36
59939;BME280;45801;51.810;19.444;2023-03-26T06:26:48;97780.89;;;7.82;71.84
59939;BME280;45801;51.810;19.444;2023-03-26T06:29:14;97779.55;;;7.84;71.79
59939;BME280;45801;51.810;19.444;2023-03-26T06:31:41;97781.50;;;7.79;71.79
59939;BME280;45801;51.810;19.444;2023-03-26T06:34:07;97784.91;;;7.77;71.40
59939;BME280;45801;51.810;19.444;2023-03-26T06:36:34;97783.14;;;7.75;71.22
59939;BME280;45801;51.810;19.444;2023-03-26T06:39:01;97782.85;;;7.77;71.29
59939;BME280;45801;51.810;19.444;2023-03-26T06:41:27;97789.10;;;7.82;71.85
59939;BME280;45801;51.810;19.444;2023-03-26T06:43:55;97789.48;;;7.78;71.41
59939;BME280;45801;51.810;19.444;2023-03-26T06:46:21;97790.08;;;7.86;71.06
59939;BME280;45801;51.810;19.444;2023-03-26T06:48:49;97790.45;;;7.93;70.69
59939;BME280;45801;51.810;19.444;2023-03-26T06:51:17;97792.76;;;8.00;70.85
59939;BME280;45801;51.810;19.444;2023-03-26T06:53:43;97791.06;;;8.02;70.40
59939;BME280;45801;51.810;19.444;2023-03-26T06:56:10;97793.26;;;7.93;69.95
59939;BME280;45801;51.810;19.444;2023-03-26T06:58:36;97797.54;;;7.96;70.19
59939;BME280;45801;51.810;19.444;2023-03-26T07:01:03;97800.73;;;7.98;69.94
59939;BME280;45801;51.810;19.444;2023-03-26T07:03:30;97796.52;;;7.97;70.02
59939;BME280;45801;51.810;19.444;2023-03-26T07:05:57;97803.80;;;8.02;69.89
59939;BME280;45801;51.810;19.444;2023-03-26T07:08:23;97800.73;;;8.04;69.62
59939;BME280;45801;51.810;19.444;2023-03-26T07:10:49;97804.24;;;7.99;69.40
59939;BME280;45801;51.810;19.444;2023-03-26T07:13:16;97812.88;;;7.90;69.18
59939;BME280;45801;51.810;19.444;2023-03-26T07:15:43;97810.39;;;7.89;69.24
59939;BME280;45801;51.810;19.444;2023-03-26T07:18:10;97811.91;;;7.93;69.79
59939;BME280;45801;51.810;19.444;2023-03-26T07:20:37;97811.75;;;7.93;69.55
59939;BME280;45801;51.810;19.444;2023-03-26T07:23:04;97811.77;;;7.94;70.00
59939;BME280;45801;51.810;19.444;2023-03-26T07:25:31;97816.67;;;7.90;70.49
59939;BME280;45801;51.810;19.444;2023-03-26T07:33:36;97818.27;;;7.90;70.47
59939;BME280;45801;51.810;19.444;2023-03-26T07:36:33;97816.55;;;7.91;70.82
59939;BME280;45801;51.810;19.444;2023-03-26T07:39:17;97807.77;;;7.89;71.07
59939;BME280;45801;51.810;19.444;2023-03-26T07:41:54;97805.64;;;7.88;71.07
59939;BME280;45801;51.810;19.444;2023-03-26T07:44:53;97809.80;;;7.86;70.67
59939;BME280;45801;51.810;19.444;2023-03-26T07:47:27;97812.45;;;8.00;70.46
59939;BME280;45801;51.810;19.444;2023-03-26T07:49:55;97808.77;;;8.05;70.86
59939;BME280;45801;51.810;19.444;2023-03-26T07:52:24;97807.16;;;8.03;70.91
59939;BME280;45801;51.810;19.444;2023-03-26T07:54:53;97805.80;;;8.10;70.42
59939;BME280;45801;51.810;19.444;2023-03-26T08:00:21;97804.43;;;8.11;70.54
59939;BME280;45801;51.810;19.444;2023-03-26T08:06:11;97808.27;;;8.05;71.03
59939;BME280;45801;51.810;19.444;2023-03-26T08:08:49;97810.03;;;8.06;71.41
59939;BME280;45801;51.810;19.444;2023-03-26T08:14:32;97810.21;;;8.12;72.24
59939;BME280;45801;51.810;19.444;2023-03-26T08:17:16;97813.74;;;8.02;71.89
59939;BME280;45801;51.810;19.444;2023-03-26T08:22:41;97816.42;;;8.09;71.49
59939;BME280;45801;51.810;19.444;2023-03-26T08:25:25;97814.05;;;8.12;71.81
59939;BME280;45801;51.810;19.444;2023-03-26T08:30:55;97809.40;;;8.14;70.64
59939;BME280;45801;51.810;19.444;2023-03-26T08:33:25;97814.98;;;8.14;70.68
59939;BME280;45801;51.810;19.444;2023-03-26T08:35:53;97816.95;;;8.21;70.58
59939;BME280;45801;51.810;19.444;2023-03-26T08:38:20;97815.55;;;8.27;70.12
59939;BME280;45801;51.810;19.444;2023-03-26T08:41:33;97808.25;;;8.34;69.93
59939;BME280;45801;51.810;19.444;2023-03-26T08:56:28;97802.58;;;8.37;68.37
59939;BME280;45801;51.810;19.444;2023-03-26T09:02:14;97803.65;;;8.38;68.93
59939;BME280;45801;51.810;19.444;2023-03-26T09:06:07;97804.43;;;8.46;68.69
59939;BME280;45801;51.810;19.444;2023-03-26T09:08:15;97805.65;;;8.46;68.35
59939;BME280;45801;51.810;19.444;2023-03-26T09:28:00;97789.73;;;8.82;65.99
59939;BME280;45801;51.810;19.444;2023-03-26T09:33:52;97784.52;;;8.97;66.13
59939;BME280;45801;51.810;19.444;2023-03-26T09:36:40;97786.98;;;9.04;66.04
59939;BME280;45801;51.810;19.444;2023-03-26T10:04:35;97788.68;;;9.15;64.12
59939;BME280;45801;51.810;19.444;2023-03-26T10:10:00;97785.99;;;9.20;64.31
59939;BME280;45801;51.810;19.444;2023-03-26T10:12:36;97783.44;;;9.22;63.99
59939;BME280;45801;51.810;19.444;2023-03-26T10:23:07;97780.39;;;9.34;63.54
59939;BME280;45801;51.810;19.444;2023-03-26T10:25:42;97780.07;;;9.35;63.59
59939;BME280;45801;51.810;19.444;2023-03-26T10:32:15;97765.21;;;9.49;63.74
59939;BME280;45801;51.810;19.444;2023-03-26T10:34:54;97762.09;;;9.57;63.73
59939;BME280;45801;51.810;19.444;2023-03-26T10:40:29;97759.28;;;9.80;61.78
59939;BME280;45801;51.810;19.444;2023-03-26T10:45:34;97764.73;;;9.96;60.49
59939;BME280;45801;51.810;19.444;2023-03-26T10:54:24;97764.83;;;9.85;60.36
59939;BME280;45801;51.810;19.444;2023-03-26T10:56:48;97763.77;;;9.85;60.13
59939;BME280;45801;51.810;19.444;2023-03-26T10:59:17;97761.36;;;9.78;60.17
59939;BME280;45801;51.810;19.444;2023-03-26T11:01:57;97764.89;;;9.80;60.28
59939;BME280;45801;51.810;19.444;2023-03-26T11:04:48;97763.77;;;9.69;59.83
59939;BME280;45801;51.810;19.444;2023-03-26T11:12:42;97762.44;;;9.72;62.30
59939;BME280;45801;51.810;19.444;2023-03-26T11:15:30;97765.10;;;9.74;62.41
59939;BME280;45801;51.810;19.444;2023-03-26T11:18:34;97763.43;;;9.77;62.78
59939;BME280;45801;51.810;19.444;2023-03-26T11:21:21;97760.04;;;9.82;63.24
59939;BME280;45801;51.810;19.444;2023-03-26T11:24:00;97759.27;;;9.80;63.64
59939;BME280;45801;51.810;19.444;2023-03-26T11:26:50;97757.04;;;9.81;62.99
59939;BME280;45801;51.810;19.444;2023-03-26T11:32:08;97747.73;;;10.28;59.56
59939;BME280;45801;51.810;19.444;2023-03-26T11:34:40;97746.40;;;10.48;59.21
59939;BME280;45801;51.810;19.444;2023-03-26T11:37:45;97753.27;;;10.59;58.25
59939;BME280;45801;51.810;19.444;2023-03-26T11:40:13;97751.98;;;10.55;57.36
59939;BME280;45801;51.810;19.444;2023-03-26T11:42:46;97753.55;;;10.55;57.85
59939;BME280;45801;51.810;19.444;2023-03-26T11:45:18;97754.91;;;10.53;57.48
59939;BME280;45801;51.810;19.444;2023-03-26T11:47:58;97752.63;;;10.53;58.27
59939;BME280;45801;51.810;19.444;2023-03-26T11:50:29;97755.16;;;10.48;58.21
59939;BME280;45801;51.810;19.444;2023-03-26T11:53:05;97758.23;;;10.44;57.45
59939;BME280;45801;51.810;19.444;2023-03-26T11:55:46;97758.66;;;10.39;57.09
59939;BME280;45801;51.810;19.444;2023-03-26T11:58:37;97760.52;;;10.37;57.37
59939;BME280;45801;51.810;19.444;2023-03-26T12:01:13;97757.52;;;10.34;56.63
59939;BME280;45801;51.810;19.444;2023-03-26T12:03:41;97755.73;;;10.33;56.25
59939;BME280;45801;51.810;19.444;2023-03-26T12:06:23;97752.87;;;10.57;56.17
59939;BME280;45801;51.810;19.444;2023-03-26T12:08:51;97742.96;;;10.79;57.38
59939;BME280;45801;51.810;19.444;2023-03-26T12:11:24;97738.16;;;10.94;56.86
59939;BME280;45801;51.810;19.444;2023-03-26T12:13:58;97736.38;;;11.03;56.69
59939;BME280;45801;51.810;19.444;2023-03-26T12:16:26;97733.58;;;11.13;57.32
59939;BME280;45801;51.810;19.444;2023-03-26T12:19:01;97735.38;;;11.26;58.06
59939;BME280;45801;51.810;19.444;2023-03-26T12:21:45;97734.23;;;11.43;57.61
59939;BME280;45801;51.810;19.444;2023-03-26T12:24:28;97733.07;;;11.35;56.25
59939;BME280;45801;51.810;19.444;2023-03-26T12:27:00;97736.42;;;11.26;56.30
59939;BME280;45801;51.810;19.444;2023-03-26T12:29:29;97747.95;;;11.13;56.16
59939;BME280;45801;51.810;19.444;2023-03-26T12:32:12;97757.84;;;10.97;57.15
59939;BME280;45801;51.810;19.444;2023-03-26T12:34:40;97770.48;;;10.79;59.08
59939;BME280;45801;51.810;19.444;2023-03-26T12:37:34;97776.33;;;10.65;60.62
59939;BME280;45801;51.810;19.444;2023-03-26T12:42:58;97788.07;;;9.93;61.07
59939;BME280;45801;51.810;19.444;2023-03-26T12:45:37;97795.12;;;9.64;62.53
59939;BME280;45801;51.810;19.444;2023-03-26T12:48:05;97792.46;;;9.55;63.70
59939;BME280;45801;51.810;19.444;2023-03-26T12:56:26;97776.08;;;9.21;67.57
59939;BME280;45801;51.810;19.444;2023-03-26T13:06:56;97766.60;;;9.63;65.47
59939;BME280;45801;51.810;19.444;2023-03-26T13:12:35;97764.45;;;10.00;64.66
59939;BME280;45801;51.810;19.444;2023-03-26T13:17:50;97759.05;;;10.41;63.54
59939;BME280;45801;51.810;19.444;2023-03-26T13:20:26;97753.34;;;10.63;62.01
59939;BME280;45801;51.810;19.444;2023-03-26T13:23:01;97745.34;;;10.75;61.15
59939;BME280;45801;51.810;19.444;2023-03-26T13:26:30;97748.09;;;10.72;59.98
59939;BME280;45801;51.810;19.444;2023-03-26T13:31:53;97744.98;;;10.65;61.47
59939;BME280;45801;51.810;19.444;2023-03-26T13:37:13;97731.83;;;10.82;60.91
59939;BME280;45801;51.810;19.444;2023-03-26T13:40:20;97726.81;;;10.86;60.13
59939;BME280;45801;51.810;19.444;2023-03-26T13:42:46;97720.86;;;10.96;59.78
59939;BME280;45801;51.810;19.444;2023-03-26T13:45:40;97718.16;;;10.92;59.44
59939;BME280;45801;51.810;19.444;2023-03-26T13:48:25;97716.02;;;11.01;59.52
59939;BME280;45801;51.810;19.444;2023-03-26T13:51:17;97715.36;;;11.03;57.74
59939;BME280;45801;51.810;19.444;2023-03-26T13:53:53;97713.46;;;11.05;57.24
59939;BME280;45801;51.810;19.444;2023-03-26T13:56:25;97719.23;;;11.04;58.37
59939;BME280;45801;51.810;19.444;2023-03-26T13:59:07;97714.69;;;11.04;57.38
59939;BME280;45801;51.810;19.444;2023-03-26T14:01:41;97710.85;;;11.06;56.18
59939;BME280;45801;51.810;19.444;2023-03-26T14:04:26;97712.38;;;11.13;56.20
59939;BME280;45801;51.810;19.444;2023-03-26T14:07:05;97704.50;;;11.24;56.67
59939;BME280;45801;51.810;19.444;2023-03-26T14:10:11;97708.48;;;11.20;55.31
59939;BME280;45801;51.810;19.444;2023-03-26T14:12:56;97710.77;;;11.11;54.68
59939;BME280;45801;51.810;19.444;2023-03-26T14:15:41;97712.59;;;11.05;56.15
59939;BME280;45801;51.810;19.444;2023-03-26T14:32:41;97706.61;;;11.47;55.31
59939;BME280;45801;51.810;19.444;2023-03-26T14:35:34;97707.23;;;11.52;54.87
59939;BME280;45801;51.810;19.444;2023-03-26T14:41:18;97710.80;;;11.59;54.38
59939;BME280;45801;51.810;19.444;2023-03-26T14:46:58;97710.66;;;11.37;54.63
59939;BME280;45801;51.810;19.444;2023-03-26T14:49:59;97711.36;;;11.26;55.52
59939;BME280;45801;51.810;19.444;2023-03-26T14:52:47;97713.89;;;11.20;55.48
59939;BME280;45801;51.810;19.444;2023-03-26T15:01:12;97706.79;;;10.94;57.07
59939;BME280;45801;51.810;19.444;2023-03-26T15:04:22;97710.55;;;10.78;57.65
59939;BME280;45801;51.810;19.444;2023-03-26T15:10:33;97713.45;;;10.73;58.05
59939;BME280;45801;51.810;19.444;2023-03-26T15:27:29;97707.98;;;10.71;57.25
59939;BME280;45801;51.810;19.444;2023-03-26T15:33:05;97706.54;;;10.89;57.23
59939;BME280;45801;51.810;19.444;2023-03-26T15:38:53;97704.40;;;10.87;56.01
59939;BME280;45801;51.810;19.444;2023-03-26T15:41:50;97705.14;;;10.78;56.17
59939;BME280;45801;51.810;19.444;2023-03-26T15:44:48;97710.31;;;10.74;56.73
59939;BME280;45801;51.810;19.444;2023-03-26T15:50:36;97706.16;;;10.67;56.89
59939;BME280;45801;51.810;19.444;2023-03-26T15:53:37;97705.19;;;10.72;56.99
59939;BME280;45801;51.810;19.444;2023-03-26T15:56:06;97700.27;;;10.80;57.02
59939;BME280;45801;51.810;19.444;2023-03-26T15:58:52;97697.21;;;10.86;57.02
59939;BME280;45801;51.810;19.444;2023-03-26T16:01:41;97701.10;;;10.88;57.02
59939;BME280;45801;51.810;19.444;2023-03-26T16:04:34;97702.09;;;10.75;57.13
59939;BME280;45801;51.810;19.444;2023-03-26T16:07:25;97704.23;;;10.58;56.89
59939;BME280;45801;51.810;19.444;2023-03-26T16:12:46;97712.02;;;10.53;56.60
59939;BME280;45801;51.810;19.444;2023-03-26T16:15:24;97710.70;;;10.48;56.88
59939;BME280;45801;51.810;19.444;2023-03-26T16:18:17;97714.20;;;10.39;56.18
59939;BME280;45801;51.810;19.444;2023-03-26T16:20:53;97713.61;;;10.35;55.75
59939;BME280;45801;51.810;19.444;2023-03-26T16:23:28;97713.81;;;10.37;55.52
59939;BME280;45801;51.810;19.444;2023-03-26T16:28:35;97719.81;;;10.24;54.96
59939;BME280;45801;51.810;19.444;2023-03-26T16:33:47;97721.33;;;10.21;54.72
59939;BME280;45801;51.810;19.444;2023-03-26T16:53:14;97722.39;;;10.13;55.17
59939;BME280;45801;51.810;19.444;2023-03-26T16:56:12;97722.97;;;10.16;54.58
59939;BME280;45801;51.810;19.444;2023-03-26T17:04:09;97723.29;;;10.14;54.37
59939;BME280;45801;51.810;19.444;2023-03-26T17:09:32;97725.29;;;10.17;54.94
59939;BME280;45801;51.810;19.444;2023-03-26T17:12:24;97727.24;;;10.19;55.34
59939;BME280;45801;51.810;19.444;2023-03-26T17:15:10;97726.42;;;10.22;55.40
59939;BME280;45801;51.810;19.444;2023-03-26T17:20:56;97725.88;;;10.13;54.81
59939;BME280;45801;51.810;19.444;2023-03-26T17:23:42;97727.38;;;10.09;55.22
59939;BME280;45801;51.810;19.444;2023-03-26T17:29:24;97730.63;;;10.05;55.49
59939;BME280;45801;51.810;19.444;2023-03-26T17:31:58;97733.95;;;10.05;55.57
59939;BME280;45801;51.810;19.444;2023-03-26T17:37:27;97734.02;;;10.08;55.90
59939;BME280;45801;51.810;19.444;2023-03-26T17:42:28;97734.70;;;10.07;56.68